Time;durP1;ratioP1;P1;durP2;ratioP2;P2;SDS_P1;SDS_P2;PMS_P1;PMS_P2;Temp;Humidity;BMP_temperature;BMP_pressure;BME280_temperature;BME280_humidity;BME280_pressure;Samples;Min_cycle;Max_cycle;Signal;HPM_P1;HPM_P2
2021/12/05 00:16:56;;;;;;;68.43;18.83;;;4.50;99.90;;;;;;5063141;28;20563;-69
2021/12/05 00:16:57;;;;;;;77.22;19.55;;;4.40;99.90;;;;;;5062602;28;20056;-69
2021/12/05 00:24:42;;;;;;;55.15;17.85;;;4.40;99.90;;;;;;5080263;28;20434;-69
2021/12/05 00:27:16;;;;;;;53.75;17.17;;;4.50;99.90;;;;;;5047360;28;20056;-70
2021/12/05 00:29:58;;;;;;;54.17;17.40;;;4.40;99.90;;;;;;5052174;28;20052;-67
2021/12/05 00:35:25;;;;;;;65.68;17.30;;;4.40;99.90;;;;;;5068739;28;20390;-69
2021/12/05 00:43:25;;;;;;;44.28;13.27;;;4.40;99.90;;;;;;5068244;28;20048;-68
2021/12/05 00:57:21;;;;;;;40.78;12.43;;;4.40;99.90;;;;;;5055979;28;20163;-69
2021/12/05 01:02:48;;;;;;;34.20;11.75;;;4.40;99.90;;;;;;5065528;28;20048;-69
2021/12/05 01:15:43;;;;;;;28.80;10.57;;;4.30;99.90;;;;;;5055472;28;20546;-68
2021/12/05 01:18:14;;;;;;;28.60;10.00;;;4.20;99.90;;;;;;5066162;28;20132;-68
2021/12/05 01:20:44;;;;;;;37.05;11.10;;;4.20;99.90;;;;;;5062700;28;20131;-68
2021/12/05 01:28:27;;;;;;;36.40;11.10;;;4.20;99.90;;;;;;5063383;28;20059;-70
2021/12/05 01:36:09;;;;;;;29.38;9.65;;;4.10;99.90;;;;;;5057535;28;20057;-69
2021/12/05 01:38:55;;;;;;;32.20;9.75;;;4.20;99.90;;;;;;5064093;28;20145;-69
2021/12/05 01:44:41;;;;;;;29.63;9.80;;;4.10;99.90;;;;;;5051125;28;20060;-69
2021/12/05 01:55:19;;;;;;;25.48;10.52;;;4.00;99.90;;;;;;5054495;28;20123;-69
2021/12/05 02:01:23;;;;;;;27.40;10.48;;;4.00;99.90;;;;;;5071472;28;20417;-68
2021/12/05 02:11:38;;;;;;;27.35;10.52;;;3.90;99.90;;;;;;5071216;28;20475;-68
2021/12/05 02:33:32;;;;;;;28.33;11.55;;;3.90;99.90;;;;;;5071978;28;20044;-68
2021/12/05 02:41:22;;;;;;;28.88;11.48;;;3.90;99.90;;;;;;5059069;28;20119;-69
2021/12/05 02:43:59;;;;;;;36.45;12.50;;;3.90;99.90;;;;;;5070271;28;20106;-68
2021/12/05 02:46:26;;;;;;;29.75;11.68;;;3.90;99.90;;;;;;5069437;28;20041;-68
2021/12/05 02:48:52;;;;;;;27.45;11.52;;;3.90;99.90;;;;;;5061213;28;20052;-68
2021/12/05 02:51:24;;;;;;;34.58;12.95;;;3.90;99.90;;;;;;5058953;28;20036;-68
2021/12/05 02:54:02;;;;;;;29.73;11.57;;;3.80;99.90;;;;;;5065491;28;20048;-68
2021/12/05 02:56:30;;;;;;;24.58;11.05;;;3.90;99.90;;;;;;5037897;28;20037;-68
2021/12/05 02:59:00;;;;;;;20.33;11.13;;;3.90;99.90;;;;;;5070707;28;20044;-68
2021/12/05 03:01:36;;;;;;;28.00;11.98;;;4.20;99.90;;;;;;5056257;28;20521;-68
2021/12/05 03:04:03;;;;;;;27.60;11.13;;;3.90;99.90;;;;;;5066645;28;20041;-68
2021/12/05 03:06:32;;;;;;;32.92;11.45;;;3.90;99.90;;;;;;5056368;28;20041;-68
2021/12/05 03:09:02;;;;;;;34.65;13.18;;;3.90;99.90;;;;;;5063290;28;20479;-70
2021/12/05 03:11:30;;;;;;;28.38;12.70;;;3.90;99.90;;;;;;5053523;28;20045;-67
2021/12/05 03:13:56;;;;;;;26.90;11.40;;;3.90;99.90;;;;;;5055963;28;20509;-68
2021/12/05 03:16:25;;;;;;;35.70;13.25;;;3.90;99.90;;;;;;5070725;28;20055;-69
2021/12/05 03:18:51;;;;;;;31.08;11.30;;;3.90;99.90;;;;;;5060560;28;20178;-68
2021/12/05 03:21:17;;;;;;;33.35;12.40;;;3.90;99.90;;;;;;5055052;28;20041;-68
2021/12/05 03:23:48;;;;;;;36.13;12.98;;;3.90;99.90;;;;;;5059037;28;20385;-68
2021/12/05 03:26:22;;;;;;;33.92;12.00;;;3.90;99.90;;;;;;5067118;28;20048;-68
2021/12/05 03:28:50;;;;;;;30.48;12.43;;;3.90;99.90;;;;;;5054185;28;20055;-69
2021/12/05 03:31:17;;;;;;;26.38;12.00;;;3.90;99.90;;;;;;5055943;28;20360;-69
2021/12/05 03:33:43;;;;;;;30.20;12.18;;;3.90;99.90;;;;;;5059066;28;20049;-69
2021/12/05 03:36:10;;;;;;;23.25;10.60;;;3.90;99.90;;;;;;5051097;28;20049;-68
2021/12/05 03:38:37;;;;;;;34.70;13.32;;;3.90;99.90;;;;;;5063853;28;20052;-69
2021/12/05 03:41:04;;;;;;;41.93;12.83;;;3.90;99.90;;;;;;5056712;28;20045;-69
2021/12/05 03:43:30;;;;;;;30.13;12.63;;;3.90;99.90;;;;;;5055915;28;20298;-69
2021/12/05 03:45:58;;;;;;;29.23;11.73;;;3.90;99.90;;;;;;5053707;28;20057;-69
2021/12/05 03:48:28;;;;;;;33.53;12.00;;;3.80;99.90;;;;;;5049778;28;20044;-69
2021/12/05 03:50:56;;;;;;;26.70;12.70;;;3.90;99.90;;;;;;5066797;28;20052;-68
2021/12/05 03:53:21;;;;;;;34.88;12.90;;;3.80;99.90;;;;;;5069782;28;20044;-69
2021/12/05 03:55:51;;;;;;;31.00;11.73;;;3.80;99.90;;;;;;5068549;28;20478;-69
2021/12/05 03:58:19;;;;;;;38.88;13.23;;;3.80;99.90;;;;;;5067179;28;20390;-68
2021/12/05 04:00:50;;;;;;;35.30;14.27;;;3.80;99.90;;;;;;5065501;28;20052;-69
2021/12/05 04:03:18;;;;;;;41.58;13.70;;;3.80;99.90;;;;;;5062570;28;20044;-68
2021/12/05 04:05:45;;;;;;;;;;;3.80;99.90;;;;;;5070552;28;20084;-68
2021/12/05 04:08:13;;;;;;;33.65;13.45;;;3.80;99.90;;;;;;5058947;28;20420;-68
2021/12/05 04:10:43;;;;;;;32.42;13.95;;;3.70;99.90;;;;;;5066035;28;20045;-68
2021/12/05 04:13:09;;;;;;;35.55;13.07;;;3.70;99.90;;;;;;5062017;28;20033;-68
2021/12/05 04:15:35;;;;;;;28.70;13.70;;;3.70;99.90;;;;;;5056422;28;20032;-68
2021/12/05 04:18:01;;;;;;;32.72;13.68;;;3.70;99.90;;;;;;5071507;28;20076;-67
2021/12/05 04:20:27;;;;;;;39.30;13.65;;;3.70;99.90;;;;;;5067195;28;20037;-68
2021/12/05 04:22:54;;;;;;;38.33;15.05;;;3.60;99.90;;;;;;5062059;28;20057;-67
2021/12/05 04:25:20;;;;;;;45.47;15.43;;;3.60;99.90;;;;;;5053684;28;20839;-68
2021/12/05 04:27:49;;;;;;;40.97;15.07;;;3.60;99.90;;;;;;5059176;28;20102;-69
2021/12/05 04:30:18;;;;;;;36.10;14.93;;;3.60;99.90;;;;;;5060197;28;20394;-68
2021/12/05 04:32:45;;;;;;;38.45;16.17;;;3.60;99.90;;;;;;5069878;28;20391;-67
2021/12/05 04:35:11;;;;;;;49.00;17.48;;;3.50;99.90;;;;;;5073217;28;20044;-68
2021/12/05 04:37:37;;;;;;;43.50;16.63;;;3.50;99.90;;;;;;5069861;28;20045;-69
2021/12/05 04:40:05;;;;;;;37.60;15.93;;;3.50;99.90;;;;;;5056971;28;20044;-69
2021/12/05 04:42:30;;;;;;;41.38;16.10;;;3.50;99.90;;;;;;5073448;28;20343;-68
2021/12/05 04:44:56;;;;;;;40.30;17.02;;;3.50;99.90;;;;;;5056803;28;20044;-68
2021/12/05 04:47:22;;;;;;;37.42;16.88;;;3.50;99.90;;;;;;5071270;28;20037;-67
2021/12/05 04:49:47;;;;;;;46.33;17.95;;;3.50;99.90;;;;;;5061589;28;20037;-68
2021/12/05 04:52:14;;;;;;;39.38;17.38;;;3.50;99.90;;;;;;5058626;28;20090;-68
2021/12/05 04:54:40;;;;;;;43.65;18.35;;;3.50;99.90;;;;;;5073678;28;20390;-68
2021/12/05 04:57:06;;;;;;;42.58;18.38;;;3.50;99.90;;;;;;5064210;28;20044;-68
2021/12/05 04:59:36;;;;;;;49.95;18.95;;;3.50;99.90;;;;;;5061033;28;20120;-68
2021/12/05 05:02:04;;;;;;;54.47;19.38;;;3.50;99.90;;;;;;5052906;28;20444;-69
2021/12/05 05:04:30;;;;;;;58.42;21.55;;;3.50;99.90;;;;;;5056879;28;20446;-68
2021/12/05 05:07:14;;;;;;;50.08;20.50;;;3.50;99.90;;;;;;5066169;28;20048;-69
2021/12/05 05:09:40;;;;;;;51.25;18.75;;;3.50;99.90;;;;;;5064153;28;20036;-69
2021/12/05 05:12:06;;;;;;;59.33;20.35;;;3.50;99.90;;;;;;5057172;28;20056;-69
2021/12/05 05:14:33;;;;;;;39.92;18.13;;;3.50;99.90;;;;;;5053540;28;20120;-68
2021/12/05 05:16:58;;;;;;;47.92;19.45;;;3.50;99.90;;;;;;5052258;28;20084;-69
2021/12/05 05:19:27;;;;;;;57.13;21.08;;;3.50;99.90;;;;;;5053970;28;20514;-68
2021/12/05 05:22:07;;;;;;;52.53;20.27;;;3.50;99.90;;;;;;5042155;28;20045;-68
2021/12/05 05:25:02;;;;;;;48.28;19.67;;;3.50;99.90;;;;;;5051703;28;20049;-68
2021/12/05 05:41:06;;;;;;;53.65;19.70;;;3.50;99.90;;;;;;5060854;28;20090;-68
2021/12/05 05:46:17;;;;;;;47.03;17.58;;;3.60;99.90;;;;;;5053782;28;20048;-67
2021/12/05 05:51:15;;;;;;;45.38;18.52;;;3.60;99.90;;;;;;5058778;28;20082;-67
2021/12/05 05:53:41;;;;;;;45.47;18.90;;;3.60;99.90;;;;;;5063123;28;20102;-67
2021/12/05 05:56:16;;;;;;;39.33;17.70;;;3.60;99.90;;;;;;5056163;28;20037;-67
2021/12/05 05:58:53;;;;;;;54.90;19.27;;;3.60;99.90;;;;;;5060466;28;20414;-67
2021/12/05 06:04:00;;;;;;;51.03;17.85;;;3.60;99.90;;;;;;5052979;28;20478;-68
2021/12/05 06:06:27;;;;;;;41.50;16.85;;;3.60;99.90;;;;;;5056939;28;20080;-68
2021/12/05 06:08:52;;;;;;;41.97;16.73;;;3.60;99.90;;;;;;5061650;28;20052;-68
2021/12/05 06:11:18;;;;;;;31.23;14.43;;;3.50;99.90;;;;;;5060146;28;20037;-68
2021/12/05 06:13:45;;;;;;;39.83;15.60;;;3.60;99.90;;;;;;5070249;28;20037;-68
2021/12/05 06:16:13;;;;;;;43.00;16.15;;;3.60;99.90;;;;;;5072247;28;20466;-66
2021/12/05 06:18:39;;;;;;;38.88;14.68;;;3.50;99.90;;;;;;5061335;28;20060;-66
2021/12/05 06:21:06;;;;;;;35.28;13.45;;;3.50;99.90;;;;;;5052450;28;20128;-69
2021/12/05 06:23:33;;;;;;;34.70;13.55;;;3.50;99.90;;;;;;5063493;28;20047;-69
2021/12/05 06:25:59;;;;;;;31.83;12.70;;;3.50;99.90;;;;;;5050826;28;20403;-67
2021/12/05 06:28:36;;;;;;;45.95;14.00;;;3.50;99.90;;;;;;5057949;28;20028;-67
2021/12/05 06:39:20;;;;;;;30.35;13.10;;;3.40;99.90;;;;;;5063276;28;20056;-68
2021/12/05 06:47:11;;;;;;;41.03;13.52;;;3.40;99.90;;;;;;5052301;28;20045;-68
2021/12/05 06:49:37;;;;;;;36.67;12.38;;;3.40;99.90;;;;;;5053065;28;20388;-68
2021/12/05 06:52:04;;;;;;;34.47;11.23;;;3.40;99.90;;;;;;5052577;28;20039;-68
2021/12/05 06:54:29;;;;;;;33.28;11.98;;;3.40;99.90;;;;;;5057701;28;20128;-68
2021/12/05 06:56:55;;;;;;;32.17;10.85;;;3.40;99.90;;;;;;5063843;28;20112;-68
2021/12/05 06:59:21;;;;;;;28.15;10.60;;;3.30;99.90;;;;;;5064247;28;20036;-68
2021/12/05 07:01:46;;;;;;;30.00;11.25;;;3.30;99.90;;;;;;5056011;28;20099;-68
2021/12/05 07:07:13;;;;;;;30.20;10.15;;;3.30;99.90;;;;;;5059498;28;20045;-68
2021/12/05 07:09:40;;;;;;;35.05;9.93;;;3.30;99.90;;;;;;5058333;28;20048;-68
2021/12/05 07:12:55;;;;;;;39.03;11.25;;;3.30;99.90;;;;;;5059326;28;20056;-68
2021/12/05 07:21:06;;;;;;;24.05;9.63;;;3.30;99.90;;;;;;5068182;28;20049;-68
2021/12/05 07:40:30;;;;;;;37.88;11.57;;;3.30;99.90;;;;;;5055370;28;20049;-68
2021/12/05 07:43:10;;;;;;;34.38;11.55;;;3.30;99.90;;;;;;5055990;28;20059;-68
2021/12/05 07:45:48;;;;;;;36.05;11.48;;;3.30;99.90;;;;;;5052247;28;20044;-67
2021/12/05 07:48:20;;;;;;;33.80;10.90;;;3.30;99.90;;;;;;5064825;28;20098;-68
2021/12/05 07:50:55;;;;;;;31.92;10.90;;;3.30;99.90;;;;;;5057186;28;20063;-67
2021/12/05 07:53:33;;;;;;;34.35;11.57;;;3.30;99.90;;;;;;5069853;28;20522;-67
2021/12/05 07:56:07;;;;;;;33.90;11.30;;;3.30;99.90;;;;;;5070411;28;20040;-68
2021/12/05 08:01:22;;;;;;;29.27;11.20;;;3.40;99.90;;;;;;5051439;28;20127;-70
2021/12/05 08:14:56;;;;;;;29.48;12.43;;;3.40;99.90;;;;;;5051952;28;20081;-67
2021/12/05 08:17:22;;;;;;;31.88;11.43;;;3.40;99.90;;;;;;5056258;28;20061;-68
2021/12/05 08:19:48;;;;;;;37.47;12.13;;;3.40;99.90;;;;;;5067517;28;20410;-67
2021/12/05 08:22:16;;;;;;;38.20;12.63;;;3.40;99.90;;;;;;5059679;28;20072;-67
2021/12/05 08:24:46;;;;;;;30.98;12.45;;;3.40;99.90;;;;;;5067092;28;20123;-67
2021/12/05 08:27:14;;;;;;;36.15;12.77;;;3.40;99.90;;;;;;5051622;28;20525;-68
2021/12/05 08:29:53;;;;;;;32.35;13.10;;;3.50;99.90;;;;;;5046314;28;20051;-68
2021/12/05 08:32:45;;;;;;;33.28;12.75;;;3.50;99.90;;;;;;5059674;28;20056;-68
2021/12/05 08:38:21;;;;;;;34.05;13.55;;;3.60;99.90;;;;;;5064117;28;20037;-67
2021/12/05 10:14:18;;;;;;;33.90;16.42;;;3.80;99.90;;;;;;5058875;28;20045;-68
2021/12/05 10:37:19;;;;;;;33.40;13.48;;;3.90;99.90;;;;;;5072503;28;20044;-68
2021/12/05 10:39:46;;;;;;;29.23;13.73;;;3.80;99.90;;;;;;5053674;28;20483;-68
2021/12/05 10:42:38;;;;;;;31.80;13.40;;;3.80;99.90;;;;;;5051169;28;20044;-68
2021/12/05 10:45:08;;;;;;;38.65;13.88;;;3.90;99.90;;;;;;5059776;28;20047;-68
2021/12/05 10:47:36;;;;;;;36.75;14.10;;;3.80;99.90;;;;;;5061854;28;20056;-68
2021/12/05 10:50:39;;;;;;;36.50;13.38;;;3.90;99.90;;;;;;5066537;28;20398;-68
2021/12/05 10:53:39;;;;;;;33.38;13.90;;;3.90;99.90;;;;;;5057752;28;20071;-68
2021/12/05 10:56:10;;;;;;;29.50;13.90;;;3.90;99.90;;;;;;5068073;28;20049;-68
2021/12/05 10:58:57;;;;;;;33.63;14.93;;;3.90;99.90;;;;;;5055729;28;20104;-67
2021/12/05 11:01:28;;;;;;;32.72;13.27;;;3.90;99.90;;;;;;5063796;28;20112;-67
2021/12/05 11:03:58;;;;;;;28.55;14.55;;;3.90;99.90;;;;;;5069077;28;20052;-68
2021/12/05 11:06:49;;;;;;;31.85;14.38;;;3.90;99.90;;;;;;5056711;28;20094;-67
2021/12/05 11:09:19;;;;;;;35.63;14.35;;;3.90;99.90;;;;;;5063271;28;20134;-67
2021/12/05 11:11:49;;;;;;;28.98;14.45;;;4.00;99.90;;;;;;5057573;28;20443;-68
2021/12/05 11:14:21;;;;;;;27.05;13.77;;;4.00;99.90;;;;;;5057952;28;20079;-68
2021/12/05 11:16:50;;;;;;;36.13;15.93;;;4.00;99.90;;;;;;5068076;28;20146;-67
2021/12/05 11:19:23;;;;;;;27.90;14.88;;;4.00;99.90;;;;;;5062211;28;20047;-67
2021/12/05 11:21:54;;;;;;;34.42;14.13;;;4.10;99.90;;;;;;5062228;28;20792;-67
2021/12/05 11:24:30;;;;;;;36.38;14.30;;;4.10;99.90;;;;;;5067060;28;20502;-67
2021/12/05 11:27:05;;;;;;;33.88;14.98;;;4.20;99.90;;;;;;5065699;28;20044;-67
2021/12/05 11:29:54;;;;;;;37.65;15.10;;;4.10;99.90;;;;;;5057938;28;20067;-68
2021/12/05 11:32:38;;;;;;;39.72;14.30;;;4.20;99.90;;;;;;5056623;28;20058;-68
2021/12/05 11:35:15;;;;;;;28.90;13.63;;;4.20;99.90;;;;;;5073111;28;20040;-68
2021/12/05 11:37:54;;;;;;;30.42;14.70;;;4.30;99.90;;;;;;5040364;28;20182;-68
2021/12/05 11:40:22;;;;;;;26.40;13.38;;;4.40;99.90;;;;;;5065516;28;20102;-68
2021/12/05 11:43:01;;;;;;;28.77;13.43;;;4.30;99.90;;;;;;5067106;28;20410;-68
2021/12/05 11:45:29;;;;;;;29.38;13.45;;;4.30;99.90;;;;;;5061420;28;20048;-68
2021/12/05 11:47:58;;;;;;;32.78;12.68;;;4.40;99.90;;;;;;5071493;28;20055;-68
2021/12/05 11:50:50;;;;;;;26.40;13.10;;;4.40;99.90;;;;;;5061268;28;20052;-68
2021/12/05 11:53:51;;;;;;;26.27;13.23;;;4.40;99.90;;;;;;5059303;28;20092;-69
2021/12/05 11:56:43;;;;;;;;;;;4.50;99.90;;;;;;5059028;28;20405;-69
2021/12/05 11:59:17;;;;;;;26.33;12.80;;;4.50;99.90;;;;;;5043786;28;20039;-68
2021/12/05 12:01:55;;;;;;;31.42;14.18;;;4.60;99.90;;;;;;5054879;28;20470;-69
2021/12/05 12:04:25;;;;;;;32.88;14.68;;;4.60;99.90;;;;;;5058182;28;20045;-69
2021/12/05 12:07:16;;;;;;;36.45;15.00;;;4.70;99.90;;;;;;5057913;28;20044;-68
2021/12/05 12:09:46;;;;;;;27.70;13.15;;;4.70;99.90;;;;;;5057868;28;20048;-68
2021/12/05 12:12:11;;;;;;;31.67;16.48;;;4.80;99.90;;;;;;5047981;28;20044;-68
2021/12/05 12:14:37;;;;;;;35.67;14.73;;;4.80;99.90;;;;;;5058446;28;20056;-68
2021/12/05 12:17:08;;;;;;;28.38;13.93;;;4.70;99.90;;;;;;5055107;28;20042;-68
2021/12/05 12:19:36;;;;;;;34.13;15.18;;;4.70;99.90;;;;;;5048427;28;20052;-68
2021/12/05 12:22:03;;;;;;;33.20;15.05;;;4.70;99.90;;;;;;5047597;28;20059;-68
2021/12/05 12:24:30;;;;;;;36.38;14.77;;;4.70;99.90;;;;;;5051010;28;20451;-68
2021/12/05 12:26:56;;;;;;;32.08;15.73;;;4.70;99.90;;;;;;5054606;28;20095;-68
2021/12/05 12:29:24;;;;;;;32.45;13.80;;;4.80;99.90;;;;;;5055012;28;20052;-68
2021/12/05 12:31:50;;;;;;;35.90;14.82;;;4.90;99.90;;;;;;5059978;28;20121;-68
2021/12/05 12:34:20;;;;;;;22.77;12.75;;;4.90;99.90;;;;;;5047422;28;20175;-68
2021/12/05 12:36:57;;;;;;;32.05;14.23;;;4.90;99.90;;;;;;5061846;28;20048;-68
2021/12/05 12:39:35;;;;;;;27.08;14.10;;;5.00;99.90;;;;;;5051598;28;20505;-69
2021/12/05 12:42:05;;;;;;;29.60;14.10;;;5.00;99.90;;;;;;5051712;28;20055;-68
2021/12/05 12:44:32;;;;;;;29.98;14.45;;;5.00;99.90;;;;;;5050735;28;20190;-68
2021/12/05 12:47:00;;;;;;;38.38;13.45;;;5.30;99.90;;;;;;5053517;28;20057;-67
2021/12/05 12:49:33;;;;;;;33.50;13.32;;;5.10;99.90;;;;;;5059577;28;20098;-69
2021/12/05 12:52:07;;;;;;;31.05;12.75;;;5.10;99.90;;;;;;5056706;28;20068;-69
2021/12/05 12:54:49;;;;;;;26.95;12.68;;;5.10;99.90;;;;;;5064247;28;20051;-66
2021/12/05 12:57:23;;;;;;;22.90;12.15;;;5.10;99.90;;;;;;5053443;28;20049;-68
2021/12/05 12:59:59;;;;;;;26.65;12.65;;;5.10;99.90;;;;;;5060437;28;20068;-67
2021/12/05 13:03:14;;;;;;;28.95;11.93;;;5.00;99.90;;;;;;5061770;28;20052;-67
2021/12/05 13:07:19;;;;;;;29.65;12.05;;;5.00;99.90;;;;;;5067344;28;20055;-68
2021/12/05 13:11:48;;;;;;;24.50;11.57;;;5.00;99.90;;;;;;5056147;28;20094;-68
2021/12/05 13:14:14;;;;;;;26.75;11.40;;;5.00;99.90;;;;;;5067713;28;20033;-68
2021/12/05 13:16:44;;;;;;;27.52;11.45;;;5.00;99.90;;;;;;5054501;28;20056;-68
2021/12/05 13:19:23;;;;;;;21.60;11.63;;;5.00;99.90;;;;;;5058149;28;20064;-68
2021/12/05 13:21:54;;;;;;;26.52;11.48;;;5.00;99.90;;;;;;5058562;28;20099;-68
2021/12/05 13:24:31;;;;;;;24.25;11.00;;;5.00;99.90;;;;;;5057051;28;20047;-68
2021/12/05 13:27:03;;;;;;;23.90;10.93;;;5.00;99.90;;;;;;5063183;28;20052;-68
2021/12/05 13:29:46;;;;;;;25.73;11.18;;;4.90;99.90;;;;;;5068010;28;20087;-68
2021/12/05 13:32:25;;;;;;;30.35;12.05;;;5.00;99.90;;;;;;5066767;28;20144;-67
2021/12/05 13:34:52;;;;;;;26.17;11.20;;;5.00;99.90;;;;;;5053203;28;20061;-67
2021/12/05 13:37:49;;;;;;;22.65;10.30;;;5.10;99.90;;;;;;5061454;28;20040;-67
2021/12/05 13:40:22;;;;;;;23.55;10.13;;;5.10;99.90;;;;;;5069117;28;20066;-68
2021/12/05 13:42:53;;;;;;;19.92;10.85;;;5.10;99.90;;;;;;5068306;28;20052;-68
2021/12/05 13:45:27;;;;;;;23.63;11.30;;;5.20;99.90;;;;;;5050332;28;20151;-67
2021/12/05 13:47:53;;;;;;;24.05;10.77;;;5.10;99.90;;;;;;5049254;28;20049;-67
2021/12/05 13:50:22;;;;;;;24.15;10.55;;;5.10;99.90;;;;;;5057149;28;20143;-68
2021/12/05 13:52:56;;;;;;;30.10;13.65;;;5.10;99.90;;;;;;5068729;28;20052;-67
2021/12/05 13:55:52;;;;;;;20.67;11.20;;;5.10;99.90;;;;;;5053010;28;20088;-67
2021/12/05 13:58:38;;;;;;;18.60;10.13;;;5.10;99.90;;;;;;5056372;28;20064;-67
2021/12/05 14:01:06;;;;;;;19.55;9.88;;;5.10;99.90;;;;;;5049998;28;20135;-68
2021/12/05 14:03:40;;;;;;;20.58;10.10;;;5.10;99.90;;;;;;5049656;28;20095;-67
2021/12/05 14:06:24;;;;;;;21.83;10.00;;;5.00;99.90;;;;;;5052502;28;20040;-67
2021/12/05 14:08:52;;;;;;;21.85;10.93;;;5.00;99.90;;;;;;5063816;28;20044;-67
2021/12/05 14:11:18;;;;;;;22.30;10.23;;;5.00;99.90;;;;;;5066189;28;20040;-68
2021/12/05 14:13:44;;;;;;;18.25;10.20;;;5.00;99.90;;;;;;5048669;28;20041;-68
2021/12/05 14:16:10;;;;;;;20.25;9.85;;;4.90;99.90;;;;;;5057437;28;20063;-68
2021/12/05 14:18:36;;;;;;;24.92;11.00;;;4.90;99.90;;;;;;5063457;28;20122;-68
2021/12/05 14:21:19;;;;;;;22.77;11.30;;;4.90;99.90;;;;;;5051735;28;20090;-68
2021/12/05 14:23:54;;;;;;;24.08;11.98;;;4.90;99.90;;;;;;5055494;28;20092;-69
2021/12/05 14:26:25;;;;;;;25.25;12.40;;;4.90;99.90;;;;;;5056586;28;20029;-68
2021/12/05 14:28:57;;;;;;;29.65;14.20;;;4.80;99.90;;;;;;5057403;28;20394;-68
2021/12/05 14:31:32;;;;;;;23.20;12.77;;;4.90;99.90;;;;;;5056346;28;20402;-69
2021/12/05 14:33:58;;;;;;;32.75;12.40;;;4.80;99.90;;;;;;5060338;28;20048;-67
2021/12/05 14:36:28;;;;;;;28.73;13.10;;;4.80;99.90;;;;;;5051514;28;20565;-67
2021/12/05 14:39:14;;;;;;;32.53;13.20;;;4.80;99.90;;;;;;5052576;28;20044;-67
2021/12/05 14:41:42;;;;;;;29.80;13.18;;;4.80;99.90;;;;;;5052442;28;20052;-67
2021/12/05 14:44:08;;;;;;;24.02;13.40;;;4.80;99.90;;;;;;5049120;28;20127;-67
2021/12/05 14:46:47;;;;;;;31.30;14.18;;;4.70;99.90;;;;;;5053533;28;20059;-68
2021/12/05 14:49:13;;;;;;;;;;;4.70;99.90;;;;;;5055517;28;20088;-67
2021/12/05 14:51:41;;;;;;;32.42;14.02;;;4.70;99.90;;;;;;5060550;28;19960;-68
2021/12/05 14:54:08;;;;;;;26.10;14.23;;;4.70;99.90;;;;;;5049626;28;20048;-68
2021/12/05 14:56:36;;;;;;;31.27;13.50;;;4.70;99.90;;;;;;5046242;28;20483;-72
2021/12/05 14:59:14;;;;;;;30.80;14.63;;;4.70;99.90;;;;;;5052375;28;20418;-68
2021/12/05 15:01:41;;;;;;;25.90;13.30;;;4.70;99.90;;;;;;5059925;28;20048;-68
2021/12/05 15:04:09;;;;;;;29.42;14.60;;;4.70;99.90;;;;;;5057940;28;20138;-68
2021/12/05 15:06:43;;;;;;;26.85;13.70;;;4.60;99.90;;;;;;5063138;28;20067;-69
2021/12/05 15:09:38;;;;;;;30.42;14.20;;;4.60;99.90;;;;;;5060874;28;20044;-68
2021/12/05 15:12:06;;;;;;;30.10;14.52;;;4.60;99.90;;;;;;5056303;28;20063;-67
2021/12/05 15:14:33;;;;;;;26.73;13.60;;;4.60;99.90;;;;;;5055757;28;20094;-67
2021/12/05 15:17:06;;;;;;;28.17;13.07;;;4.50;99.90;;;;;;5060400;28;20151;-68
2021/12/05 15:19:32;;;;;;;27.00;12.50;;;4.50;99.90;;;;;;5056715;28;20036;-67
2021/12/05 15:21:58;;;;;;;32.58;13.38;;;4.50;99.90;;;;;;5055408;28;20045;-68
2021/12/05 15:24:27;;;;;;;33.20;14.35;;;4.60;99.90;;;;;;5052679;28;20048;-68
2021/12/05 15:26:54;;;;;;;31.45;14.95;;;4.50;99.90;;;;;;5056919;28;20123;-68
2021/12/05 15:29:21;;;;;;;27.98;14.13;;;4.50;99.90;;;;;;5053683;28;20115;-68
2021/12/05 15:31:47;;;;;;;30.77;14.65;;;4.40;99.90;;;;;;5059384;28;20563;-68
2021/12/05 15:34:34;;;;;;;34.72;14.43;;;4.40;99.90;;;;;;5049814;28;20040;-68
2021/12/05 15:37:08;;;;;;;30.33;15.73;;;4.40;99.90;;;;;;5056065;28;20040;-68
2021/12/05 15:39:34;;;;;;;39.30;15.73;;;4.40;99.90;;;;;;5059410;28;20064;-68
2021/12/05 15:42:00;;;;;;;39.53;16.48;;;4.40;99.90;;;;;;5064112;28;20514;-68
2021/12/05 15:44:33;;;;;;;37.55;16.58;;;4.30;99.90;;;;;;5065774;28;20459;-67
2021/12/05 15:47:00;;;;;;;31.45;16.92;;;4.30;99.90;;;;;;5050617;28;20483;-68
2021/12/05 15:49:28;;;;;;;31.37;16.30;;;4.30;99.90;;;;;;5067978;28;20041;-69
2021/12/05 15:52:03;;;;;;;28.98;14.95;;;4.40;99.90;;;;;;5057490;28;20060;-67
2021/12/05 15:54:29;;;;;;;39.92;16.85;;;4.40;99.90;;;;;;5069163;28;20077;-68
2021/12/05 15:57:15;;;;;;;31.50;16.13;;;4.40;99.90;;;;;;5054109;28;20037;-69
2021/12/05 15:59:44;;;;;;;39.25;19.00;;;4.40;99.90;;;;;;5064118;28;20037;-67
2021/12/05 16:02:11;;;;;;;44.42;19.90;;;4.40;99.90;;;;;;5061734;28;20041;-67
2021/12/05 16:04:39;;;;;;;39.42;19.52;;;4.40;99.90;;;;;;5070571;28;20045;-68
2021/12/05 16:07:10;;;;;;;35.80;17.58;;;4.40;99.90;;;;;;5063990;28;20104;-68
2021/12/05 16:09:38;;;;;;;36.58;19.60;;;4.40;99.90;;;;;;5049833;28;20059;-68
2021/12/05 16:12:17;;;;;;;42.40;19.55;;;4.40;99.90;;;;;;5064492;28;20048;-69
2021/12/05 16:14:45;;;;;;;43.50;20.00;;;4.40;99.90;;;;;;5068642;28;20041;-69
2021/12/05 16:17:24;;;;;;;37.78;19.25;;;4.40;99.90;;;;;;5055599;28;20133;-68
2021/12/05 16:20:20;;;;;;;42.70;20.10;;;4.30;99.90;;;;;;5055941;28;20037;-68
2021/12/05 16:23:23;;;;;;;39.10;19.13;;;4.30;99.90;;;;;;5061956;28;20493;-69
2021/12/05 16:26:00;;;;;;;37.85;19.95;;;4.30;99.90;;;;;;5062004;28;20049;-69
2021/12/05 16:28:48;;;;;;;39.22;19.25;;;4.30;99.90;;;;;;5055565;28;20056;-67
2021/12/05 16:31:25;;;;;;;38.67;19.63;;;4.20;99.90;;;;;;5061665;28;20103;-67
2021/12/05 16:33:56;;;;;;;36.67;19.83;;;4.20;99.90;;;;;;5067922;28;20051;-68
2021/12/05 16:36:30;;;;;;;38.97;20.33;;;4.20;99.90;;;;;;5060247;28;20045;-68
2021/12/05 16:39:03;;;;;;;40.28;18.58;;;4.20;99.90;;;;;;5071659;28;20044;-67
2021/12/05 16:41:30;;;;;;;33.88;19.38;;;4.20;99.90;;;;;;5060514;28;20403;-68
2021/12/05 16:43:59;;;;;;;41.10;20.25;;;4.20;99.90;;;;;;5059784;28;20032;-69
2021/12/05 16:46:32;;;;;;;36.50;20.38;;;4.10;99.90;;;;;;5062054;28;20468;-68
2021/12/05 16:49:00;;;;;;;34.38;19.98;;;4.10;99.90;;;;;;5052203;28;20053;-69
2021/12/05 16:51:28;;;;;;;41.15;20.27;;;4.10;99.90;;;;;;5054411;28;20071;-67
2021/12/05 16:54:02;;;;;;;44.78;22.35;;;4.10;99.90;;;;;;5060889;28;20048;-67
2021/12/05 16:56:45;;;;;;;47.40;22.33;;;4.10;99.90;;;;;;5064195;28;20406;-67
2021/12/05 16:59:18;;;;;;;44.35;22.17;;;4.10;99.90;;;;;;5072567;28;20052;-67
2021/12/05 17:01:45;;;;;;;47.65;22.92;;;4.10;99.90;;;;;;5063218;28;20045;-67
2021/12/05 17:04:11;;;;;;;40.40;21.42;;;4.00;99.90;;;;;;5058278;28;20036;-68
2021/12/05 17:06:54;;;;;;;48.58;21.60;;;4.00;99.90;;;;;;5055209;28;20375;-69
2021/12/05 17:09:20;;;;;;;40.65;21.30;;;4.00;99.90;;;;;;5055201;28;20120;-68
2021/12/05 17:11:46;;;;;;;39.17;20.95;;;4.00;99.90;;;;;;5055197;28;20053;-69
2021/12/05 17:14:24;;;;;;;39.15;20.58;;;4.00;99.90;;;;;;5058699;28;20123;-67
2021/12/05 17:16:50;;;;;;;38.92;21.40;;;4.00;99.90;;;;;;5058323;28;20084;-68
2021/12/05 17:19:18;;;;;;;42.00;21.92;;;4.00;99.90;;;;;;5060647;28;20060;-67
2021/12/05 17:21:49;;;;;;;41.05;21.80;;;4.00;99.90;;;;;;5059191;28;20044;-67
2021/12/05 17:24:22;;;;;;;52.33;21.48;;;3.90;99.90;;;;;;5060381;28;20067;-68
2021/12/05 17:27:07;;;;;;;44.25;22.00;;;3.80;99.90;;;;;;5052089;28;20048;-68
2021/12/05 17:29:44;;;;;;;44.97;21.95;;;3.70;99.90;;;;;;5064207;28;20048;-68
2021/12/05 17:32:12;;;;;;;43.55;22.60;;;3.70;99.90;;;;;;5054801;28;20371;-68
2021/12/05 17:34:43;;;;;;;49.20;22.75;;;3.80;99.90;;;;;;5053860;28;20090;-67
2021/12/05 17:37:13;;;;;;;41.78;22.23;;;3.80;99.90;;;;;;5058598;28;20040;-72
2021/12/05 17:39:43;;;;;;;46.55;23.02;;;3.70;99.90;;;;;;5040093;28;20129;-65
2021/12/05 17:42:16;;;;;;;46.63;22.20;;;3.70;99.90;;;;;;5040042;28;20474;-67
2021/12/05 17:44:43;;;;;;;43.50;23.10;;;3.70;99.90;;;;;;5061254;28;20041;-66
2021/12/05 17:47:11;;;;;;;42.90;22.67;;;3.70;99.90;;;;;;5056498;28;20529;-66
2021/12/05 17:49:40;;;;;;;43.20;21.63;;;3.70;99.90;;;;;;5061724;28;20142;-67
2021/12/05 17:52:09;;;;;;;45.90;21.80;;;3.70;99.90;;;;;;5057298;28;20041;-66
2021/12/05 17:54:39;;;;;;;;;;;3.70;99.90;;;;;;5067854;28;20460;-65
2021/12/05 17:57:11;;;;;;;42.60;21.52;;;3.60;99.90;;;;;;5060598;28;19928;-66
2021/12/05 18:02:53;;;;;;;43.92;22.33;;;3.60;99.90;;;;;;5052680;28;20417;-64
2021/12/05 18:05:35;;;;;;;50.03;23.35;;;3.60;99.90;;;;;;5051878;28;20562;-64
2021/12/05 18:08:10;;;;;;;46.65;23.40;;;3.60;99.90;;;;;;5036519;28;20045;-66
2021/12/05 18:10:46;;;;;;;39.13;21.42;;;3.70;99.90;;;;;;5055781;28;20071;-65